Time;durP1;ratioP1;P1;durP2;ratioP2;P2;SDS_P1;SDS_P2;PMS_P1;PMS_P2;Temp;Humidity;BMP_temperature;BMP_pressure;BME280_temperature;BME280_humidity;BME280_pressure;Samples;Min_cycle;Max_cycle;Signal;HPM_P1;HPM_P2
2023/08/20 00:01:42;;;;;;;13.25;4.80;;;;;;;;;;5024353;28;20558;-66
2023/08/20 00:04:11;;;;;;;10.63;5.30;;;;;;;;;;5021714;28;20060;-64
2023/08/20 00:06:42;;;;;;;11.38;4.82;;;;;;;;;;5021484;28;20107;-63
2023/08/20 00:09:11;;;;;;;7.97;5.00;;;;;;;;;;5022023;28;20557;-64
2023/08/20 00:11:39;;;;;;;11.80;4.95;;;;;;;;;;5021767;28;20042;-64
2023/08/20 00:14:09;;;;;;;12.10;5.47;;;;;;;;;;5021792;28;20096;-63
2023/08/20 00:16:38;;;;;;;9.00;4.95;;;;;;;;;;5019398;28;20080;-62
2023/08/20 00:19:06;;;;;;;9.48;4.82;;;;;;;;;;5020055;28;20104;-65
2023/08/20 00:21:35;;;;;;;10.80;4.97;;;;;;;;;;5021103;28;20540;-63
2023/08/20 00:24:04;;;;;;;7.68;4.53;;;;;;;;;;5023468;28;20042;-62
2023/08/20 00:26:33;;;;;;;9.45;4.80;;;;;;;;;;5021822;28;20045;-65
2023/08/20 00:29:02;;;;;;;11.88;5.07;;;;;;;;;;5020682;28;20136;-66
2023/08/20 00:31:32;;;;;;;8.57;5.28;;;;;;;;;;5023277;28;20053;-64
2023/08/20 00:34:00;;;;;;;8.70;5.00;;;;;;;;;;5019814;28;20065;-66
2023/08/20 00:36:35;;;;;;;11.30;5.60;;;;;;;;;;5021277;28;20484;-63
2023/08/20 00:39:03;;;;;;;10.68;4.97;;;;;;;;;;5022161;28;20159;-63
2023/08/20 00:41:32;;;;;;;8.73;4.53;;;;;;;;;;5021849;28;20076;-66
2023/08/20 00:44:00;;;;;;;10.77;5.13;;;;;;;;;;5022293;28;20103;-68
2023/08/20 00:46:29;;;;;;;7.63;4.60;;;;;;;;;;5026773;28;20496;-66
2023/08/20 00:48:59;;;;;;;6.72;4.80;;;;;;;;;;5023561;28;20572;-63
2023/08/20 00:51:27;;;;;;;9.40;4.70;;;;;;;;;;5027360;28;20564;-65
2023/08/20 00:53:55;;;;;;;9.50;4.97;;;;;;;;;;5025635;28;20119;-64
2023/08/20 00:56:24;;;;;;;6.50;4.20;;;;;;;;;;5023114;28;20091;-63
2023/08/20 00:58:52;;;;;;;9.43;4.72;;;;;;;;;;5024717;28;20159;-63
2023/08/20 01:01:21;;;;;;;10.07;4.60;;;;;;;;;;5025004;28;20095;-62
2023/08/20 01:03:49;;;;;;;10.02;5.03;;;;;;;;;;5015598;28;20407;-63
2023/08/20 01:06:22;;;;;;;11.80;4.90;;;;;;;;;;5024078;28;20045;-63
2023/08/20 01:08:55;;;;;;;9.43;4.78;;;;;;;;;;5024606;28;20463;-66
2023/08/20 01:11:28;;;;;;;8.77;4.25;;;;;;;;;;5029754;28;20076;-63
2023/08/20 01:13:56;;;;;;;8.25;4.43;;;;;;;;;;5024423;28;20461;-64
2023/08/20 01:16:25;;;;;;;10.98;4.38;;;;;;;;;;5027757;28;20038;-63
2023/08/20 01:18:53;;;;;;;8.93;4.07;;;;;;;;;;5023946;28;20072;-62
2023/08/20 01:21:25;;;;;;;7.35;3.92;;;;;;;;;;5026347;28;20061;-64
2023/08/20 01:23:59;;;;;;;11.52;4.80;;;;;;;;;;5023802;28;20468;-63
2023/08/20 01:26:46;;;;;;;7.50;4.00;;;;;;;;;;5026158;28;20049;-63
2023/08/20 01:29:16;;;;;;;6.38;4.18;;;;;;;;;;5022092;28;20318;-63
2023/08/20 01:31:45;;;;;;;8.18;4.45;;;;;;;;;;5026581;28;20448;-63
2023/08/20 01:34:14;;;;;;;9.68;4.50;;;;;;;;;;5023098;28;20053;-63
2023/08/20 01:36:42;;;;;;;6.80;3.92;;;;;;;;;;5026353;28;20041;-66
2023/08/20 01:39:11;;;;;;;7.65;4.07;;;;;;;;;;5024774;28;20108;-65
2023/08/20 01:41:40;;;;;;;9.23;4.20;;;;;;;;;;5024789;28;20096;-65
2023/08/20 01:44:08;;;;;;;8.80;4.10;;;;;;;;;;5021158;28;20053;-65
2023/08/20 01:46:38;;;;;;;6.90;4.35;;;;;;;;;;5026179;28;20168;-64
2023/08/20 01:49:07;;;;;;;7.13;4.00;;;;;;;;;;5024996;28;20072;-68
2023/08/20 01:51:36;;;;;;;12.07;4.47;;;;;;;;;;5026626;28;20111;-65
2023/08/20 01:54:05;;;;;;;8.57;4.20;;;;;;;;;;5022864;28;20068;-63
2023/08/20 01:56:33;;;;;;;11.30;4.43;;;;;;;;;;5024424;28;20103;-64
2023/08/20 01:59:01;;;;;;;12.13;4.28;;;;;;;;;;5024571;28;20422;-63
2023/08/20 02:01:30;;;;;;;10.25;4.70;;;;;;;;;;5024724;28;20091;-68
2023/08/20 02:04:00;;;;;;;13.43;4.63;;;;;;;;;;5024997;28;20103;-63
2023/08/20 02:06:28;;;;;;;6.55;4.10;;;;;;;;;;5023431;28;20565;-65
2023/08/20 02:08:57;;;;;;;8.18;4.53;;;;;;;;;;5024159;28;20445;-65
2023/08/20 02:11:25;;;;;;;7.95;4.35;;;;;;;;;;5026318;28;20049;-66
2023/08/20 02:13:54;;;;;;;9.13;4.45;;;;;;;;;;5023502;28;20053;-63
2023/08/20 02:16:22;;;;;;;10.25;4.95;;;;;;;;;;5024831;28;20077;-64
2023/08/20 02:18:51;;;;;;;10.77;4.43;;;;;;;;;;5024767;28;20124;-64
2023/08/20 02:21:21;;;;;;;8.30;4.70;;;;;;;;;;5021264;28;20041;-67
2023/08/20 02:23:49;;;;;;;10.43;4.72;;;;;;;;;;5022631;28;20087;-64
2023/08/20 02:26:17;;;;;;;9.50;4.38;;;;;;;;;;5024434;28;20142;-64
2023/08/20 02:28:46;;;;;;;8.23;4.88;;;;;;;;;;5022206;28;20448;-64
2023/08/20 02:31:14;;;;;;;9.00;5.25;;;;;;;;;;5024122;28;20552;-63
2023/08/20 02:33:43;;;;;;;13.23;4.85;;;;;;;;;;5020702;28;20091;-64
2023/08/20 02:36:11;;;;;;;8.55;4.88;;;;;;;;;;5025941;28;20073;-63
2023/08/20 02:38:41;;;;;;;8.45;4.97;;;;;;;;;;5026066;28;20139;-64
2023/08/20 02:41:09;;;;;;;8.68;4.93;;;;;;;;;;5024508;28;20521;-62
2023/08/20 02:43:37;;;;;;;6.68;5.32;;;;;;;;;;5021264;28;20076;-64
2023/08/20 02:46:06;;;;;;;10.18;4.85;;;;;;;;;;5021565;28;20081;-64
2023/08/20 02:48:36;;;;;;;8.38;4.65;;;;;;;;;;5023438;28;20041;-65
2023/08/20 02:51:05;;;;;;;8.63;4.35;;;;;;;;;;5026768;28;20073;-62
2023/08/20 02:53:33;;;;;;;7.65;4.85;;;;;;;;;;5021903;28;20042;-65
2023/08/20 02:56:04;;;;;;;8.00;4.57;;;;;;;;;;5023623;28;20069;-66
2023/08/20 02:58:33;;;;;;;9.80;3.90;;;;;;;;;;5020680;28;20124;-64
2023/08/20 03:01:02;;;;;;;9.15;4.45;;;;;;;;;;5023972;28;20049;-63
2023/08/20 03:03:30;;;;;;;7.28;4.90;;;;;;;;;;5023046;28;20057;-62
2023/08/20 03:05:59;;;;;;;7.03;4.38;;;;;;;;;;5023473;28;20399;-63
2023/08/20 03:08:27;;;;;;;8.27;4.85;;;;;;;;;;5023719;28;20077;-63
2023/08/20 03:10:56;;;;;;;8.63;4.70;;;;;;;;;;5022566;28;20081;-63
2023/08/20 03:13:25;;;;;;;9.75;4.95;;;;;;;;;;5025316;28;20084;-65
2023/08/20 03:15:54;;;;;;;8.88;4.55;;;;;;;;;;5021850;28;20085;-63
2023/08/20 03:18:22;;;;;;;10.93;4.97;;;;;;;;;;5023225;28;20551;-63
2023/08/20 03:20:50;;;;;;;8.15;4.47;;;;;;;;;;5020180;28;20144;-64
2023/08/20 03:23:19;;;;;;;6.95;4.68;;;;;;;;;;5021842;28;20140;-62
2023/08/20 03:25:47;;;;;;;7.63;4.40;;;;;;;;;;5022745;28;20140;-62
2023/08/20 03:28:15;;;;;;;9.68;4.57;;;;;;;;;;5021662;28;20123;-62
2023/08/20 03:30:45;;;;;;;8.82;4.95;;;;;;;;;;5022279;28;20475;-62
2023/08/20 03:33:14;;;;;;;8.10;4.43;;;;;;;;;;5022914;28;20049;-63
2023/08/20 03:35:42;;;;;;;8.25;5.55;;;;;;;;;;5022578;28;20424;-63
2023/08/20 03:38:11;;;;;;;8.57;4.20;;;;;;;;;;5025143;28;20046;-62
2023/08/20 03:40:39;;;;;;;7.60;3.60;;;;;;;;;;5023902;28;20479;-67
2023/08/20 03:43:07;;;;;;;10.30;4.60;;;;;;;;;;5022497;28;20553;-63
2023/08/20 03:45:36;;;;;;;6.88;4.65;;;;;;;;;;5022267;28;20148;-65
2023/08/20 03:48:06;;;;;;;7.78;4.20;;;;;;;;;;5020769;28;20050;-63
2023/08/20 03:50:34;;;;;;;11.02;4.32;;;;;;;;;;5021511;28;20151;-63
2023/08/20 03:53:03;;;;;;;8.13;4.18;;;;;;;;;;5023091;28;20087;-64
2023/08/20 03:55:31;;;;;;;8.30;4.20;;;;;;;;;;5021384;28;20045;-64
2023/08/20 03:57:59;;;;;;;13.98;4.93;;;;;;;;;;5023682;28;20049;-67
2023/08/20 04:00:28;;;;;;;9.07;4.13;;;;;;;;;;5022169;28;20518;-63
2023/08/20 04:02:56;;;;;;;7.35;4.50;;;;;;;;;;5020566;28;20053;-63
2023/08/20 04:05:26;;;;;;;11.00;4.45;;;;;;;;;;5019138;28;20049;-63
2023/08/20 04:07:54;;;;;;;8.55;4.30;;;;;;;;;;5021849;28;20049;-63
2023/08/20 04:10:23;;;;;;;6.45;3.85;;;;;;;;;;5021710;28;20464;-64
2023/08/20 04:12:51;;;;;;;7.05;4.13;;;;;;;;;;5020216;28;20140;-63
2023/08/20 04:15:19;;;;;;;6.93;4.10;;;;;;;;;;5019744;28;20458;-63
2023/08/20 04:17:48;;;;;;;10.82;4.32;;;;;;;;;;5020931;28;20069;-66
2023/08/20 04:20:17;;;;;;;9.45;4.25;;;;;;;;;;5027104;28;20045;-66
2023/08/20 04:22:47;;;;;;;8.73;4.10;;;;;;;;;;5025800;28;20096;-64
2023/08/20 04:25:16;;;;;;;8.90;4.47;;;;;;;;;;5027064;28;20503;-62
2023/08/20 04:27:44;;;;;;;5.85;3.65;;;;;;;;;;5027593;28;20104;-63
2023/08/20 04:30:13;;;;;;;9.27;4.40;;;;;;;;;;5023898;28;20053;-64
2023/08/20 04:32:41;;;;;;;7.00;3.97;;;;;;;;;;5024497;28;20054;-68
2023/08/20 04:35:10;;;;;;;8.25;4.35;;;;;;;;;;5026953;28;20052;-63
2023/08/20 04:37:38;;;;;;;7.28;4.25;;;;;;;;;;5027086;28;20058;-63
2023/08/20 04:40:09;;;;;;;8.95;3.80;;;;;;;;;;5027427;28;20510;-64
2023/08/20 04:42:37;;;;;;;7.30;4.18;;;;;;;;;;5025894;28;20045;-63
2023/08/20 04:45:06;;;;;;;6.40;3.95;;;;;;;;;;5022754;28;20402;-62
2023/08/20 04:47:35;;;;;;;5.90;3.85;;;;;;;;;;5021746;28;20099;-64
2023/08/20 04:50:06;;;;;;;6.45;4.18;;;;;;;;;;5024722;28;20495;-63
2023/08/20 04:52:35;;;;;;;8.77;4.10;;;;;;;;;;5026217;28;20057;-65
2023/08/20 04:55:03;;;;;;;7.07;4.07;;;;;;;;;;5026234;28;20050;-62
2023/08/20 04:57:33;;;;;;;5.60;3.97;;;;;;;;;;5021806;28;20073;-64
2023/08/20 05:00:02;;;;;;;6.40;4.15;;;;;;;;;;5026669;28;20494;-62
2023/08/20 05:02:30;;;;;;;7.30;4.35;;;;;;;;;;5024521;28;20061;-64
2023/08/20 05:04:59;;;;;;;8.90;4.35;;;;;;;;;;5023214;28;20069;-63
2023/08/20 05:07:27;;;;;;;5.07;3.92;;;;;;;;;;5024948;28;20139;-64
2023/08/20 05:09:55;;;;;;;8.10;3.78;;;;;;;;;;5026473;28;20042;-62
2023/08/20 05:12:24;;;;;;;8.10;3.85;;;;;;;;;;5026705;28;20046;-64
2023/08/20 05:14:53;;;;;;;12.80;3.70;;;;;;;;;;5023328;28;20143;-64
2023/08/20 05:17:22;;;;;;;8.77;4.15;;;;;;;;;;5025703;28;20041;-62
2023/08/20 05:19:50;;;;;;;8.68;3.92;;;;;;;;;;5026443;28;20037;-68
2023/08/20 05:22:19;;;;;;;11.45;3.70;;;;;;;;;;5028376;28;20136;-64
2023/08/20 05:24:50;;;;;;;7.45;3.60;;;;;;;;;;5022625;28;20108;-63
2023/08/20 05:27:19;;;;;;;8.57;3.83;;;;;;;;;;5023503;28;20056;-62
2023/08/20 05:29:47;;;;;;;8.45;4.55;;;;;;;;;;5021898;28;20078;-62
2023/08/20 05:32:17;;;;;;;5.57;3.75;;;;;;;;;;5026503;28;20073;-67
2023/08/20 05:34:45;;;;;;;8.43;3.90;;;;;;;;;;5021437;28;20077;-62
2023/08/20 05:37:14;;;;;;;8.77;3.80;;;;;;;;;;5018201;28;20072;-63
2023/08/20 05:39:43;;;;;;;9.13;4.13;;;;;;;;;;5019599;28;20073;-65
2023/08/20 05:42:11;;;;;;;8.98;3.90;;;;;;;;;;5019034;28;20111;-65
2023/08/20 05:44:40;;;;;;;5.07;3.40;;;;;;;;;;5021829;28;20054;-63
2023/08/20 05:47:08;;;;;;;6.38;3.80;;;;;;;;;;5019844;28;20665;-63
2023/08/20 05:49:38;;;;;;;4.55;3.30;;;;;;;;;;5025107;28;20049;-64
2023/08/20 05:52:06;;;;;;;8.43;4.10;;;;;;;;;;5021706;28;20152;-63
2023/08/20 05:54:35;;;;;;;6.90;3.53;;;;;;;;;;5019922;28;20064;-64
2023/08/20 05:57:03;;;;;;;7.15;3.78;;;;;;;;;;5021358;28;20103;-63
2023/08/20 05:59:31;;;;;;;6.15;3.60;;;;;;;;;;5019610;28;20107;-63
2023/08/20 06:02:00;;;;;;;6.07;3.50;;;;;;;;;;5021529;28;20530;-64
2023/08/20 06:04:28;;;;;;;8.93;4.57;;;;;;;;;;5021041;28;20049;-63
2023/08/20 06:06:58;;;;;;;7.63;4.45;;;;;;;;;;5019832;28;20462;-68
2023/08/20 06:09:26;;;;;;;5.80;3.40;;;;;;;;;;5019011;28;20406;-64
2023/08/20 06:11:55;;;;;;;5.25;3.65;;;;;;;;;;5020937;28;20057;-63
2023/08/20 06:14:24;;;;;;;10.70;4.05;;;;;;;;;;5022466;28;20077;-65
2023/08/20 06:16:52;;;;;;;5.80;3.70;;;;;;;;;;5020355;28;20162;-64
2023/08/20 06:19:21;;;;;;;5.13;3.40;;;;;;;;;;5019490;28;20045;-64
2023/08/20 06:21:49;;;;;;;7.38;4.35;;;;;;;;;;5016665;28;20102;-65
2023/08/20 06:24:19;;;;;;;6.85;4.13;;;;;;;;;;5017277;28;20524;-62
2023/08/20 06:26:47;;;;;;;6.53;4.00;;;;;;;;;;5018348;28;20040;-63
2023/08/20 06:29:15;;;;;;;6.10;4.05;;;;;;;;;;5021835;28;20111;-64
2023/08/20 06:31:44;;;;;;;8.27;4.55;;;;;;;;;;5019015;28;20053;-63
2023/08/20 06:34:12;;;;;;;9.90;4.20;;;;;;;;;;5017518;28;20068;-64
2023/08/20 06:36:41;;;;;;;6.22;4.05;;;;;;;;;;5015050;28;20084;-63
2023/08/20 06:39:09;;;;;;;6.85;4.05;;;;;;;;;;5016638;28;20656;-63
2023/08/20 06:41:39;;;;;;;6.00;4.00;;;;;;;;;;5020754;28;20049;-66
2023/08/20 06:44:07;;;;;;;10.25;3.83;;;;;;;;;;5014758;28;20401;-64
2023/08/20 06:46:35;;;;;;;9.43;4.32;;;;;;;;;;5021683;28;20493;-64
2023/08/20 06:49:04;;;;;;;8.88;4.88;;;;;;;;;;5019849;28;20107;-65
2023/08/20 06:51:32;;;;;;;6.72;4.32;;;;;;;;;;5019981;28;20049;-66
2023/08/20 06:54:01;;;;;;;7.38;4.45;;;;;;;;;;5021341;28;20115;-67
2023/08/20 06:56:29;;;;;;;10.95;4.75;;;;;;;;;;5016805;28;20041;-64
2023/08/20 06:58:59;;;;;;;8.15;4.28;;;;;;;;;;5020904;28;20081;-65
2023/08/20 07:01:27;;;;;;;7.85;4.22;;;;;;;;;;5018199;28;20054;-64
2023/08/20 07:03:56;;;;;;;8.75;4.57;;;;;;;;;;5020200;28;20430;-64
2023/08/20 07:06:24;;;;;;;9.25;4.10;;;;;;;;;;5018332;28;20049;-64
2023/08/20 07:08:52;;;;;;;6.63;4.15;;;;;;;;;;5021331;28;20336;-66
2023/08/20 07:11:21;;;;;;;8.40;4.20;;;;;;;;;;5018811;28;20053;-64
2023/08/20 07:13:49;;;;;;;7.45;4.30;;;;;;;;;;5017600;28;20077;-65
2023/08/20 07:16:19;;;;;;;6.88;3.70;;;;;;;;;;5020153;28;20056;-64
2023/08/20 07:18:47;;;;;;;9.95;4.40;;;;;;;;;;5012028;28;20292;-64
2023/08/20 07:21:16;;;;;;;7.63;4.10;;;;;;;;;;5016092;28;20079;-64
2023/08/20 07:23:44;;;;;;;6.20;4.07;;;;;;;;;;5015361;28;21769;-64
2023/08/20 07:26:13;;;;;;;9.18;3.92;;;;;;;;;;5013768;28;20534;-67
2023/08/20 07:29:00;;;;;;;6.07;3.95;;;;;;;;;;5021447;28;20081;-63
2023/08/20 07:31:30;;;;;;;7.30;3.97;;;;;;;;;;5018109;28;20045;-64
2023/08/20 07:34:00;;;;;;;7.20;3.97;;;;;;;;;;5018061;28;20049;-62
2023/08/20 07:36:31;;;;;;;8.68;4.40;;;;;;;;;;5016473;28;20049;-63
2023/08/20 07:39:01;;;;;;;6.50;4.25;;;;;;;;;;5017976;28;20541;-63
2023/08/20 07:41:30;;;;;;;8.02;3.55;;;;;;;;;;5014314;28;20054;-63
2023/08/20 07:43:59;;;;;;;5.20;3.38;;;;;;;;;;5018015;28;20589;-64
2023/08/20 07:46:27;;;;;;;5.95;3.47;;;;;;;;;;5016202;28;20084;-64
2023/08/20 07:48:57;;;;;;;5.75;3.67;;;;;;;;;;5014789;28;20053;-63
2023/08/20 07:51:25;;;;;;;5.20;3.50;;;;;;;;;;5019988;28;20053;-64
2023/08/20 07:53:54;;;;;;;7.15;3.80;;;;;;;;;;5015912;28;20106;-65
2023/08/20 07:56:22;;;;;;;10.65;4.60;;;;;;;;;;5019825;28;20593;-65
2023/08/20 07:58:51;;;;;;;7.43;3.95;;;;;;;;;;5016674;28;20575;-63
2023/08/20 08:01:19;;;;;;;7.38;3.75;;;;;;;;;;5016292;28;20442;-63
2023/08/20 08:03:48;;;;;;;10.63;3.58;;;;;;;;;;5019340;28;20072;-66
2023/08/20 08:06:19;;;;;;;10.25;3.50;;;;;;;;;;5016687;28;20052;-66
2023/08/20 08:08:48;;;;;;;5.55;3.05;;;;;;;;;;5016699;28;20131;-64
2023/08/20 08:11:16;;;;;;;5.85;3.50;;;;;;;;;;5019650;28;20451;-63
2023/08/20 08:13:44;;;;;;;4.47;3.20;;;;;;;;;;5018785;28;20060;-63
2023/08/20 08:16:13;;;;;;;5.80;3.65;;;;;;;;;;5014368;28;20069;-62
2023/08/20 08:18:41;;;;;;;6.97;3.20;;;;;;;;;;5016023;28;20309;-63
2023/08/20 08:21:10;;;;;;;5.25;2.92;;;;;;;;;;5016376;28;20545;-63
2023/08/20 08:23:39;;;;;;;7.07;3.60;;;;;;;;;;5015573;28;20041;-64
2023/08/20 08:26:08;;;;;;;6.93;3.50;;;;;;;;;;5019446;28;20053;-65
2023/08/20 08:28:36;;;;;;;5.53;3.40;;;;;;;;;;5018807;28;20474;-64
2023/08/20 08:31:05;;;;;;;7.35;2.60;;;;;;;;;;5014712;28;20569;-65
2023/08/20 08:33:35;;;;;;;4.47;3.10;;;;;;;;;;5014507;28;20156;-64
2023/08/20 08:36:04;;;;;;;5.47;3.17;;;;;;;;;;5014875;28;20041;-64
2023/08/20 08:38:32;;;;;;;6.03;2.90;;;;;;;;;;5019329;28;20110;-68
2023/08/20 08:41:02;;;;;;;6.65;2.97;;;;;;;;;;5019194;28;20069;-66
2023/08/20 08:43:31;;;;;;;7.18;3.53;;;;;;;;;;5021870;28;20045;-65
2023/08/20 08:46:00;;;;;;;5.85;3.38;;;;;;;;;;5014095;28;20104;-64
2023/08/20 08:48:29;;;;;;;6.50;2.97;;;;;;;;;;5015869;28;20053;-64
2023/08/20 08:50:57;;;;;;;8.20;3.65;;;;;;;;;;5013978;28;20378;-62
2023/08/20 08:53:26;;;;;;;4.47;3.05;;;;;;;;;;5015504;28;20077;-63
2023/08/20 08:55:55;;;;;;;6.22;3.45;;;;;;;;;;5020995;28;20080;-64
2023/08/20 08:58:24;;;;;;;7.68;3.47;;;;;;;;;;5019635;28;20120;-65
2023/08/20 09:00:53;;;;;;;8.38;3.42;;;;;;;;;;5020224;28;20143;-67
2023/08/20 09:03:21;;;;;;;6.13;3.67;;;;;;;;;;5015032;28;20059;-64
2023/08/20 09:05:50;;;;;;;6.22;4.00;;;;;;;;;;5015100;28;20191;-65
2023/08/20 09:08:21;;;;;;;7.85;3.38;;;;;;;;;;5020879;28;20141;-64
2023/08/20 09:10:52;;;;;;;5.45;2.97;;;;;;;;;;5020630;28;20135;-66
2023/08/20 09:13:25;;;;;;;6.55;3.45;;;;;;;;;;5019069;28;20518;-66
2023/08/20 09:15:54;;;;;;;5.05;3.47;;;;;;;;;;5019603;28;20053;-64
2023/08/20 09:18:22;;;;;;;6.30;2.88;;;;;;;;;;5017343;28;20120;-66
2023/08/20 09:20:51;;;;;;;5.75;3.08;;;;;;;;;;5020207;28;20053;-67
2023/08/20 09:23:19;;;;;;;4.97;2.90;;;;;;;;;;5014220;28;20545;-70
2023/08/20 09:25:48;;;;;;;6.65;3.33;;;;;;;;;;5021387;28;21181;-65
2023/08/20 09:28:17;;;;;;;3.78;2.90;;;;;;;;;;5017125;28;20512;-67
2023/08/20 09:31:02;;;;;;;4.70;2.92;;;;;;;;;;5011466;28;20050;-64
2023/08/20 09:33:31;;;;;;;7.55;3.20;;;;;;;;;;5022161;28;20081;-63
2023/08/20 09:35:59;;;;;;;5.57;2.67;;;;;;;;;;5023169;28;20069;-63
2023/08/20 09:38:27;;;;;;;5.95;3.00;;;;;;;;;;5018551;28;20103;-69
2023/08/20 09:40:58;;;;;;;4.95;2.85;;;;;;;;;;5019253;28;20118;-69
2023/08/20 09:43:28;;;;;;;5.72;3.33;;;;;;;;;;5014496;28;20289;-64
2023/08/20 09:45:57;;;;;;;6.82;3.05;;;;;;;;;;5020050;28;20049;-64
2023/08/20 09:48:29;;;;;;;6.35;3.03;;;;;;;;;;5022267;28;20308;-68
2023/08/20 09:51:01;;;;;;;5.10;2.88;;;;;;;;;;5018447;28;20127;-69
2023/08/20 09:53:35;;;;;;;7.55;2.97;;;;;;;;;;5016155;28;20723;-62
2023/08/20 09:56:03;;;;;;;;;;;;;;;;;;5022593;28;20588;-67
2023/08/20 09:58:32;;;;;;;8.55;3.20;;;;;;;;;;5022646;28;19932;-67
2023/08/20 10:01:01;;;;;;;4.45;2.83;;;;;;;;;;5020818;28;20126;-65
2023/08/20 10:03:31;;;;;;;7.53;2.88;;;;;;;;;;5022506;28;20132;-65
2023/08/20 10:06:02;;;;;;;5.75;2.80;;;;;;;;;;5018359;28;20509;-64
2023/08/20 10:08:30;;;;;;;4.47;2.83;;;;;;;;;;5023027;28;20049;-63
2023/08/20 10:10:59;;;;;;;4.43;3.20;;;;;;;;;;5019638;28;20061;-62
2023/08/20 10:13:28;;;;;;;5.53;2.83;;;;;;;;;;5024120;28;20049;-63
2023/08/20 10:15:57;;;;;;;4.63;3.17;;;;;;;;;;5020606;28;20537;-63
2023/08/20 10:18:26;;;;;;;4.93;2.72;;;;;;;;;;5024160;28;20049;-63
2023/08/20 10:20:58;;;;;;;6.13;3.10;;;;;;;;;;5018115;28;20107;-68
2023/08/20 10:23:30;;;;;;;4.50;2.95;;;;;;;;;;5018979;28;20422;-69
2023/08/20 10:26:08;;;;;;;4.95;3.20;;;;;;;;;;5021049;28;20053;-69
2023/08/20 10:28:37;;;;;;;8.50;3.30;;;;;;;;;;5019686;28;20057;-69
2023/08/20 10:31:06;;;;;;;5.90;3.10;;;;;;;;;;5017195;28;20119;-64
2023/08/20 10:33:36;;;;;;;4.32;2.90;;;;;;;;;;5021405;28;20041;-63
2023/08/20 10:36:15;;;;;;;4.30;2.80;;;;;;;;;;5022166;28;20054;-63
2023/08/20 10:38:43;;;;;;;5.72;2.63;;;;;;;;;;5025769;28;20379;-66
2023/08/20 10:41:12;;;;;;;5.03;2.88;;;;;;;;;;5022421;28;20479;-65
2023/08/20 10:43:41;;;;;;;7.07;3.05;;;;;;;;;;5022146;28;20041;-64
2023/08/20 10:46:09;;;;;;;5.93;3.10;;;;;;;;;;5023765;28;20353;-66
2023/08/20 10:48:39;;;;;;;6.65;2.88;;;;;;;;;;5022268;28;20065;-68
2023/08/20 10:51:15;;;;;;;5.07;3.20;;;;;;;;;;5022342;28;20568;-65
2023/08/20 10:53:45;;;;;;;4.80;2.95;;;;;;;;;;5020060;28;20066;-65
2023/08/20 10:56:14;;;;;;;3.75;3.10;;;;;;;;;;5023879;28;20073;-66
2023/08/20 10:58:43;;;;;;;9.73;3.00;;;;;;;;;;5023861;28;20045;-65
2023/08/20 11:01:16;;;;;;;4.82;2.85;;;;;;;;;;5019162;28;20045;-66
2023/08/20 11:03:46;;;;;;;3.55;2.75;;;;;;;;;;5021257;28;20063;-67
2023/08/20 11:06:16;;;;;;;6.90;2.78;;;;;;;;;;5017782;28;20155;-68
2023/08/20 11:08:44;;;;;;;4.40;2.72;;;;;;;;;;5022183;28;21872;-65
2023/08/20 11:11:13;;;;;;;6.13;2.92;;;;;;;;;;5019179;28;20107;-67
2023/08/20 11:13:42;;;;;;;4.05;2.63;;;;;;;;;;5022645;28;20296;-70
2023/08/20 11:16:12;;;;;;;4.35;2.40;;;;;;;;;;5019647;28;20061;-67
2023/08/20 11:18:41;;;;;;;4.40;2.75;;;;;;;;;;5016791;28;20049;-65
2023/08/20 11:21:09;;;;;;;4.57;3.08;;;;;;;;;;5015092;28;20053;-66
2023/08/20 11:23:41;;;;;;;5.32;2.58;;;;;;;;;;5013707;28;20049;-67
2023/08/20 11:26:10;;;;;;;3.65;3.05;;;;;;;;;;5017813;28;20073;-67
2023/08/20 11:28:38;;;;;;;3.47;2.70;;;;;;;;;;5020816;28;20054;-67
2023/08/20 11:31:06;;;;;;;4.88;2.75;;;;;;;;;;5016677;28;20512;-69
2023/08/20 11:33:36;;;;;;;3.28;2.55;;;;;;;;;;5021676;28;20073;-66
2023/08/20 11:36:05;;;;;;;4.18;2.50;;;;;;;;;;5017814;28;20107;-67
2023/08/20 11:38:35;;;;;;;2.58;2.30;;;;;;;;;;5016456;28;20056;-67
2023/08/20 11:41:05;;;;;;;5.13;2.67;;;;;;;;;;5018038;28;20060;-66
2023/08/20 11:43:34;;;;;;;7.00;2.90;;;;;;;;;;5021750;28;20146;-67
2023/08/20 11:46:02;;;;;;;4.18;2.83;;;;;;;;;;5020877;28;20085;-68
2023/08/20 11:48:31;;;;;;;3.20;2.72;;;;;;;;;;5019612;28;20048;-72
2023/08/20 11:50:59;;;;;;;5.40;2.60;;;;;;;;;;5015899;28;20132;-69
2023/08/20 11:53:30;;;;;;;3.38;2.70;;;;;;;;;;5014405;28;20526;-71
2023/08/20 11:55:58;;;;;;;4.03;2.20;;;;;;;;;;5020369;28;20049;-69
2023/08/20 11:58:30;;;;;;;5.70;2.67;;;;;;;;;;5015463;28;20054;-69
2023/08/20 12:00:58;;;;;;;4.15;2.63;;;;;;;;;;5018435;28;20041;-68
2023/08/20 12:03:31;;;;;;;2.80;2.22;;;;;;;;;;5020168;28;20065;-70
2023/08/20 12:06:00;;;;;;;3.88;2.28;;;;;;;;;;5019160;28;20041;-66
2023/08/20 12:08:28;;;;;;;4.90;2.90;;;;;;;;;;5020259;28;20103;-71
2023/08/20 12:10:59;;;;;;;3.58;2.53;;;;;;;;;;5015749;28;20552;-69
2023/08/20 12:13:29;;;;;;;4.65;2.30;;;;;;;;;;5020039;28;20400;-65
2023/08/20 12:15:58;;;;;;;3.33;2.55;;;;;;;;;;5018590;28;20522;-67
2023/08/20 12:18:26;;;;;;;4.32;2.63;;;;;;;;;;5020218;28;20085;-68
2023/08/20 12:20:54;;;;;;;6.38;2.25;;;;;;;;;;5018077;28;20168;-64
2023/08/20 12:23:23;;;;;;;4.65;2.42;;;;;;;;;;5018867;28;20048;-64
2023/08/20 12:25:52;;;;;;;2.80;2.13;;;;;;;;;;5019958;28;20111;-67
2023/08/20 12:28:20;;;;;;;4.30;2.40;;;;;;;;;;5018890;28;20046;-65
2023/08/20 12:30:50;;;;;;;6.75;3.08;;;;;;;;;;5017754;28;20075;-64
2023/08/20 12:33:20;;;;;;;4.38;2.35;;;;;;;;;;5015513;28;20053;-68
2023/08/20 12:35:49;;;;;;;4.45;2.80;;;;;;;;;;5018086;28;20053;-67
2023/08/20 12:38:21;;;;;;;4.97;2.50;;;;;;;;;;5015631;28;20053;-67
2023/08/20 12:40:50;;;;;;;5.20;2.85;;;;;;;;;;5019260;28;20045;-65
2023/08/20 12:43:18;;;;;;;7.85;3.05;;;;;;;;;;5021636;28;20088;-65
2023/08/20 12:45:47;;;;;;;6.97;3.50;;;;;;;;;;5021647;28;20099;-68
2023/08/20 12:48:16;;;;;;;3.55;2.80;;;;;;;;;;5021487;28;20526;-71
2023/08/20 12:50:45;;;;;;;5.13;3.08;;;;;;;;;;5019003;28;20132;-68
2023/08/20 12:53:13;;;;;;;7.03;3.10;;;;;;;;;;5022326;28;20038;-72
2023/08/20 12:55:42;;;;;;;7.57;2.80;;;;;;;;;;5022424;28;20411;-69
2023/08/20 12:58:10;;;;;;;6.47;3.00;;;;;;;;;;5023275;28;20282;-69
2023/08/20 13:00:39;;;;;;;4.10;2.60;;;;;;;;;;5020998;28;20053;-70
2023/08/20 13:03:08;;;;;;;7.50;3.13;;;;;;;;;;5021476;28;20068;-67
2023/08/20 13:05:38;;;;;;;5.40;2.70;;;;;;;;;;5021245;28;20049;-65
2023/08/20 13:08:07;;;;;;;6.35;3.20;;;;;;;;;;5020954;28;20052;-69
2023/08/20 13:10:36;;;;;;;3.22;2.72;;;;;;;;;;5022246;28;20131;-68
2023/08/20 13:13:05;;;;;;;5.95;2.85;;;;;;;;;;5021925;28;20562;-66
2023/08/20 13:15:33;;;;;;;4.50;2.83;;;;;;;;;;5019415;28;20053;-65
2023/08/20 13:18:07;;;;;;;3.88;3.05;;;;;;;;;;5020609;28;20045;-68
2023/08/20 13:20:35;;;;;;;3.58;2.50;;;;;;;;;;5015869;28;20061;-67
2023/08/20 13:23:05;;;;;;;5.15;2.78;;;;;;;;;;5020512;28;20469;-68
2023/08/20 13:25:34;;;;;;;6.40;2.92;;;;;;;;;;5017999;28;20135;-69
2023/08/20 13:28:03;;;;;;;5.85;3.15;;;;;;;;;;5020376;28;20116;-68
2023/08/20 13:30:33;;;;;;;5.57;2.88;;;;;;;;;;5021792;28;20041;-65
2023/08/20 13:33:04;;;;;;;5.72;3.13;;;;;;;;;;5021736;28;20053;-70
2023/08/20 13:35:33;;;;;;;5.30;3.40;;;;;;;;;;5018583;28;20307;-67
2023/08/20 13:38:01;;;;;;;4.28;2.70;;;;;;;;;;5020932;28;20052;-67
2023/08/20 13:40:31;;;;;;;3.95;2.78;;;;;;;;;;5019754;28;20056;-67
2023/08/20 13:42:59;;;;;;;4.13;3.03;;;;;;;;;;5021468;28;20445;-64
2023/08/20 13:45:28;;;;;;;4.13;2.75;;;;;;;;;;5023375;28;20042;-66
2023/08/20 13:47:56;;;;;;;4.35;2.88;;;;;;;;;;5017961;28;20080;-68
2023/08/20 13:50:25;;;;;;;4.70;3.13;;;;;;;;;;5020189;28;20129;-67
2023/08/20 13:52:53;;;;;;;3.83;2.63;;;;;;;;;;5018579;28;20049;-65
2023/08/20 13:55:22;;;;;;;5.13;2.70;;;;;;;;;;5023205;28;20049;-67
2023/08/20 13:57:52;;;;;;;5.15;3.05;;;;;;;;;;5019995;28;20054;-66
2023/08/20 14:00:20;;;;;;;4.30;2.83;;;;;;;;;;5020632;28;20049;-70
2023/08/20 14:02:48;;;;;;;6.43;3.30;;;;;;;;;;5019300;28;20056;-65
2023/08/20 14:05:18;;;;;;;4.32;3.10;;;;;;;;;;5023433;28;20503;-65
2023/08/20 14:07:46;;;;;;;4.78;3.03;;;;;;;;;;5021861;28;20097;-70
2023/08/20 14:10:15;;;;;;;7.97;3.60;;;;;;;;;;5013840;28;20082;-65
2023/08/20 14:12:44;;;;;;;5.47;3.05;;;;;;;;;;5015103;28;20049;-67
2023/08/20 14:15:14;;;;;;;3.40;2.53;;;;;;;;;;5020769;28;20060;-64
2023/08/20 14:17:42;;;;;;;10.15;2.90;;;;;;;;;;5018370;28;20052;-65
2023/08/20 14:20:13;;;;;;;6.85;3.10;;;;;;;;;;5021374;28;20049;-68
2023/08/20 14:22:41;;;;;;;4.82;3.03;;;;;;;;;;5019480;28;20053;-66
2023/08/20 14:25:10;;;;;;;4.97;3.25;;;;;;;;;;5020543;28;20126;-72
2023/08/20 14:27:39;;;;;;;5.22;3.03;;;;;;;;;;5023498;28;20045;-64
2023/08/20 14:30:08;;;;;;;5.47;3.13;;;;;;;;;;5020733;28;20061;-65
2023/08/20 14:32:38;;;;;;;4.03;3.20;;;;;;;;;;5015679;28;20080;-69
2023/08/20 14:35:09;;;;;;;5.93;3.15;;;;;;;;;;5016519;28;20053;-66
2023/08/20 14:37:38;;;;;;;3.60;2.90;;;;;;;;;;5018594;28;20048;-64
2023/08/20 14:40:07;;;;;;;4.38;2.65;;;;;;;;;;5018313;28;20877;-64
2023/08/20 14:42:36;;;;;;;6.63;3.03;;;;;;;;;;5022381;28;20083;-67
2023/08/20 14:45:05;;;;;;;5.90;3.13;;;;;;;;;;5022321;28;20518;-65
2023/08/20 14:47:34;;;;;;;4.22;2.90;;;;;;;;;;5020837;28;20470;-66
2023/08/20 14:50:03;;;;;;;5.95;3.25;;;;;;;;;;5019699;28;20426;-65
2023/08/20 14:52:32;;;;;;;4.32;3.10;;;;;;;;;;5019195;28;20160;-66